Terminal Aerodrome Forecast
Issued by NWS Melbourne, FL

Home | Current Version | Previous Version | Text Only | Print | Product List | Glossary On
Versions: 1 2 3 4 5 6 7 8 9 10 11 12 13 14 15 16
000
FTUS42 KMLB 061304 AAA
TAFVRB
TAF AMD
KVRB 061304Z 0613/0712 05008KT P6SM VCSH SCT012 SCT025 BKN120
      TEMPO 0613/0616 4SM SHRA BKN020
     FM061600 33015G22KT P6SM SCT020 BKN030
      TEMPO 0616/0620 4SM SHRA BKN020
     FM062000 33013G21KT P6SM SCT020 BKN030
     FM070000 33011KT P6SM FEW020 BKN035
     FM070600 29011KT P6SM SCT020 SCT080=

USA.gov is the U.S. government's official web portal to all federal, state and local government web resources and services.